Airfield :
LOGIN :

Register | Disclaimer

   EN    FR    IT 

 










Legend :    VFR   Marginal VFR   IFR   Intensive IFR   Very Intensive IFR
Visi :
Ceiling :
>= 8 km
>= 3000ft
5 to 8 km
1000 to 3000 ft
1500m to 5 km
500 to 1000 ft
800 to 1500m
200 to 500 ft
< 800m
< 200 ft
Symbols :   Thunderstorms  Fog  Heavy snow  Heavy precipitations  Wind > 20 kt
SIGMETs :     Misc.  Thunderstorms  Icing  Turbulence  Mountain Waves  Volcanic Ashes






- Airport Elevation : 584 ft


LFPV - Villacoublay Vélizy

CURRENT METAR :
  • 071300Z AUTO 25007KT 9999 OVC039 10/07 Q1018 NOSIG

EXPIRED METARs :
  • 071230Z AUTO 24006KT 210V280 9999 SCT010 OVC038 10/08 Q1018 NOSIG
  • 071200Z AUTO 23007KT 200V270 9999 BKN011 BKN041 10/08 Q1018 BECMG NSC
  • 071130Z AUTO 23007KT 200V260 9999 BKN035 BKN045 09/08 Q1018 TEMPO BKN005
  • 071100Z AUTO 24006KT 210V270 9999 BKN008 BKN025 BKN031 09/08 Q1018 NOSIG
  • 071030Z AUTO 25006KT 9999 BKN009 BKN018 BKN024 09/08 Q1019 NOSIG

TAF AMD TAF LFPV
Valid from the 07 at 09:00 until the 08 at 09:00 UTC


070858Z 0709/0809 25006KT 9999 SCT006 BKN023
TEMPO 0709/0713 -RADZ BKN005
BECMG 0713/0715 NSC
BECMG 0717/0719 BKN003
BECMG 0802/0804 24015G30KT
BECMG 0805/0807 4000 RADZ OVC009



MET'MAP, your aeronautical weather chart ! - Copyright ORBIFLY December 2007 - Disclaimer

ORBIFLY MET'MAP TEAM :

Programming & Development : Alexandra Zaïnal
Concept & original design : Baudouin d'Aumeries
Assistance for programming : Marc-Olivier Méhu
Technical & hardware support : Manuel Goepfert

Contact : metmap@orbifly.com




SOURCES & CREDITS :

   NOAA